createdAt,value
2023-03-21T00:01:03.932Z,97445.30
2023-03-21T00:03:34.206Z,97446.87
2023-03-21T00:06:11.362Z,97447.25
2023-03-21T00:08:40.157Z,97444.56
2023-03-21T00:11:09.947Z,97442.53
2023-03-21T00:13:38.770Z,97442.33
2023-03-21T00:16:15.899Z,97442.00
2023-03-21T00:18:52.747Z,97443.81
2023-03-21T00:24:17.024Z,97431.92
2023-03-21T00:26:46.280Z,97434.48
2023-03-21T00:29:14.595Z,97432.14
2023-03-21T00:31:42.836Z,97433.90
2023-03-21T00:36:44.243Z,97436.52
2023-03-21T00:39:12.508Z,97436.48
2023-03-21T00:41:43.365Z,97435.92
2023-03-21T00:44:16.009Z,97436.36
2023-03-21T00:46:57.107Z,97435.56
2023-03-21T00:49:38.608Z,97436.89
2023-03-21T00:52:18.686Z,97436.63
2023-03-21T00:54:53.145Z,97433.14
2023-03-21T00:57:29.347Z,97428.13
2023-03-21T01:00:08.001Z,97425.22
2023-03-21T01:02:38.154Z,97424.93
2023-03-21T01:05:06.949Z,97425.80
2023-03-21T01:07:35.207Z,97424.55
2023-03-21T01:10:03.386Z,97426.11
2023-03-21T01:12:31.772Z,97419.61
2023-03-21T01:15:00.047Z,97420.03
2023-03-21T01:17:28.522Z,97421.35
2023-03-21T01:19:56.900Z,97416.94
2023-03-21T01:22:24.955Z,97415.39
2023-03-21T01:24:58.574Z,97412.64
2023-03-21T01:27:29.097Z,97411.96
2023-03-21T01:29:57.811Z,97407.59
2023-03-21T01:32:26.890Z,97402.61
2023-03-21T01:34:55.461Z,97396.86
2023-03-21T01:37:26.734Z,97394.94
2023-03-21T01:39:55.388Z,97392.22
2023-03-21T01:42:23.773Z,97393.52
2023-03-21T01:45:01.659Z,97392.11
2023-03-21T01:47:46.327Z,97389.04
2023-03-21T01:50:37.126Z,97388.00
2023-03-21T01:53:24.145Z,97390.06
2023-03-21T01:55:52.427Z,97389.84
2023-03-21T01:58:42.422Z,97389.69
2023-03-21T02:01:34.939Z,97389.48
2023-03-21T02:04:04.067Z,97388.19
2023-03-21T02:06:49.566Z,97384.55
2023-03-21T02:09:33.735Z,97384.00
2023-03-21T02:12:03.279Z,97385.91
2023-03-21T02:14:34.726Z,97386.98
2023-03-21T02:17:19.897Z,97384.55
2023-03-21T02:20:33.529Z,97388.09
2023-03-21T02:23:41.251Z,97387.51
2023-03-21T02:26:42.148Z,97381.77
2023-03-21T02:29:22.025Z,97383.23
2023-03-21T02:32:12.381Z,97381.92
2023-03-21T02:34:54.131Z,97384.44
2023-03-21T02:37:36.706Z,97384.92
2023-03-21T02:40:15.771Z,97386.44
2023-03-21T02:42:59.300Z,97386.98
2023-03-21T02:45:49.896Z,97383.98
2023-03-21T02:48:49.761Z,97385.20
2023-03-21T02:51:23.221Z,97389.18
2023-03-21T02:54:23.650Z,97392.48
2023-03-21T02:56:49.162Z,97390.93
2023-03-21T02:59:19.569Z,97388.02
2023-03-21T03:01:47.986Z,97388.72
2023-03-21T03:04:28.108Z,97390.16
2023-03-21T03:07:15.843Z,97391.35
2023-03-21T03:09:52.721Z,97388.86
2023-03-21T03:12:39.116Z,97391.70
2023-03-21T03:15:18.044Z,97387.91
2023-03-21T03:18:09.545Z,97384.02
2023-03-21T03:20:56.574Z,97385.39
2023-03-21T03:23:27.926Z,97384.67
2023-03-21T03:26:42.607Z,97384.56
2023-03-21T03:29:16.786Z,97381.23
2023-03-21T03:32:25.816Z,97383.89
2023-03-21T03:34:58.666Z,97380.79
2023-03-21T03:37:34.418Z,97382.55
2023-03-21T03:40:09.181Z,97384.34
2023-03-21T03:42:46.594Z,97382.77
2023-03-21T03:45:27.148Z,97383.42
2023-03-21T03:48:06.256Z,97385.27
2023-03-21T03:50:47.837Z,97383.05
2023-03-21T03:53:29.833Z,97379.52
2023-03-21T03:56:00.811Z,97381.25
2023-03-21T03:58:44.607Z,97376.69
2023-03-21T04:01:14.644Z,97372.08
2023-03-21T04:03:51.063Z,97374.64
2023-03-21T04:06:22.871Z,97373.16
2023-03-21T04:08:52.178Z,97375.04
2023-03-21T04:11:20.674Z,97372.55
2023-03-21T04:13:52.228Z,97372.44
2023-03-21T04:16:24.705Z,97372.42
2023-03-21T04:18:53.345Z,97371.63
2023-03-21T04:21:22.082Z,97378.91
2023-03-21T04:23:50.549Z,97378.80
2023-03-21T04:26:22.527Z,97379.75
2023-03-21T04:29:05.476Z,97380.18
2023-03-21T04:32:03.627Z,97382.76
2023-03-21T04:34:32.194Z,97381.19
2023-03-21T04:37:01.658Z,97386.28
2023-03-21T04:39:29.704Z,97388.15
2023-03-21T04:41:57.900Z,97385.48
2023-03-21T04:44:26.635Z,97390.67
2023-03-21T04:46:54.762Z,97388.58
2023-03-21T04:49:23.246Z,97389.68
2023-03-21T04:51:51.530Z,97389.90
2023-03-21T04:54:21.171Z,97389.36
2023-03-21T04:56:49.292Z,97391.36
2023-03-21T04:59:17.349Z,97390.49
2023-03-21T05:01:46.125Z,97395.29
2023-03-21T05:04:15.043Z,97394.73
2023-03-21T05:06:44.445Z,97395.95
2023-03-21T05:09:13.860Z,97395.27
2023-03-21T05:11:42.751Z,97398.68
2023-03-21T05:14:16.787Z,97399.84
2023-03-21T05:16:48.747Z,97397.85
2023-03-21T05:19:19.179Z,97399.15
2023-03-21T05:21:47.506Z,97402.58
2023-03-21T05:24:22.964Z,97404.56
2023-03-21T05:26:52.739Z,97407.24
2023-03-21T05:29:25.544Z,97407.89
2023-03-21T05:32:01.204Z,97408.91
2023-03-21T05:34:30.079Z,97411.48
2023-03-21T05:36:58.716Z,97408.83
2023-03-21T05:39:30.383Z,97404.73
2023-03-21T05:42:08.785Z,97404.57
2023-03-21T05:44:37.740Z,97406.93
2023-03-21T05:47:07.338Z,97412.20
2023-03-21T05:49:42.409Z,97413.09
2023-03-21T05:52:11.371Z,97408.59
2023-03-21T05:54:39.635Z,97409.40
2023-03-21T05:57:08.580Z,97409.55
2023-03-21T05:59:58.813Z,97410.78
2023-03-21T06:02:28.966Z,97408.48
2023-03-21T06:04:58.137Z,97409.10
2023-03-21T06:07:27.220Z,97412.21
2023-03-21T06:09:56.581Z,97412.80
2023-03-21T06:12:24.695Z,97414.30
2023-03-21T06:14:58.823Z,97415.52
2023-03-21T06:17:33.231Z,97414.77
2023-03-21T06:20:08.377Z,97414.31
2023-03-21T06:22:43.044Z,97412.19
2023-03-21T06:25:12.590Z,97414.41
2023-03-21T06:27:41.096Z,97413.20
2023-03-21T06:30:10.333Z,97409.60
2023-03-21T06:32:46.137Z,97411.30
2023-03-21T06:35:17.581Z,97415.20
2023-03-21T06:37:46.355Z,97413.59
2023-03-21T06:40:14.946Z,97413.48
2023-03-21T06:42:43.332Z,97414.07
2023-03-21T06:45:12.116Z,97410.26
2023-03-21T06:47:40.311Z,97412.23
2023-03-21T06:50:13.541Z,97413.11
2023-03-21T06:52:43.171Z,97410.09
2023-03-21T06:55:11.877Z,97408.35
2023-03-21T06:57:40.049Z,97408.27
2023-03-21T07:00:09.624Z,97408.95
2023-03-21T07:02:41.412Z,97410.41
2023-03-21T07:05:17.420Z,97410.52
2023-03-21T07:07:45.753Z,97412.88
2023-03-21T07:10:14.329Z,97416.14
2023-03-21T07:13:01.097Z,97416.73
2023-03-21T07:16:08.754Z,97415.14
2023-03-21T07:18:37.000Z,97413.71
2023-03-21T07:21:05.276Z,97413.38
2023-03-21T07:23:33.293Z,97414.67
2023-03-21T07:26:02.109Z,97415.82
2023-03-21T07:28:32.270Z,97415.27
2023-03-21T07:31:04.321Z,97416.20
2023-03-21T07:33:33.419Z,97413.07
2023-03-21T07:36:02.738Z,97412.46
2023-03-21T07:38:31.298Z,97410.20
2023-03-21T07:41:00.879Z,97409.35
2023-03-21T07:43:31.951Z,97408.90
2023-03-21T07:46:00.760Z,97406.83
2023-03-21T07:48:29.618Z,97403.99
2023-03-21T07:50:57.903Z,97403.08
2023-03-21T07:53:26.371Z,97397.35
2023-03-21T07:55:56.738Z,97394.15
2023-03-21T07:58:25.684Z,97392.26
2023-03-21T08:00:56.958Z,97389.67
2023-03-21T08:03:26.539Z,97392.59
2023-03-21T08:05:55.130Z,97392.37
2023-03-21T08:08:23.607Z,97390.02
2023-03-21T08:10:51.772Z,97381.48
2023-03-21T08:13:19.861Z,97379.63
2023-03-21T08:15:47.835Z,97381.67
2023-03-21T08:18:16.100Z,97377.25
2023-03-21T08:20:44.482Z,97376.81
2023-03-21T08:23:14.173Z,97376.48
2023-03-21T08:25:42.354Z,97371.48
2023-03-21T08:28:10.424Z,97372.43
2023-03-21T08:30:38.504Z,97373.52
2023-03-21T08:33:06.771Z,97368.57
2023-03-21T08:35:40.836Z,97363.19
2023-03-21T08:38:10.182Z,97362.96
2023-03-21T08:40:38.852Z,97364.55
2023-03-21T08:43:07.547Z,97365.63
2023-03-21T08:45:36.172Z,97366.38
2023-03-21T08:48:05.081Z,97364.21
2023-03-21T08:50:33.092Z,97362.25
2023-03-21T08:53:01.076Z,97361.95
2023-03-21T08:55:29.446Z,97364.87
2023-03-21T08:57:58.546Z,97363.95
2023-03-21T09:00:27.526Z,97368.88
2023-03-21T09:02:58.922Z,97368.58
2023-03-21T09:05:28.479Z,97369.02
2023-03-21T09:07:56.957Z,97370.14
2023-03-21T09:10:25.541Z,97368.52
2023-03-21T09:12:55.082Z,97367.77
2023-03-21T09:15:25.916Z,97366.70
2023-03-21T09:17:54.497Z,97364.98
2023-03-21T09:20:33.104Z,97360.32
2023-03-21T09:23:02.135Z,97358.91
2023-03-21T09:25:35.216Z,97356.62
2023-03-21T09:28:06.417Z,97358.13
2023-03-21T09:30:36.842Z,97356.17
2023-03-21T09:33:13.316Z,97354.96
2023-03-21T09:35:43.023Z,97354.31
2023-03-21T09:38:11.393Z,97362.86
2023-03-21T09:40:57.159Z,97362.09
2023-03-21T09:43:40.598Z,97364.08
2023-03-21T09:46:19.797Z,97360.04
2023-03-21T09:48:57.088Z,97358.46
2023-03-21T09:51:46.237Z,97357.92
2023-03-21T09:54:18.906Z,97355.31
2023-03-21T09:56:49.592Z,97356.99
2023-03-21T09:59:28.315Z,97356.44
2023-03-21T10:01:58.532Z,97354.23
2023-03-21T10:04:27.771Z,97352.02
2023-03-21T10:07:02.466Z,97352.84
2023-03-21T10:09:32.698Z,97354.16
2023-03-21T10:12:14.923Z,97354.77
2023-03-21T10:14:47.606Z,97351.57
2023-03-21T10:17:16.044Z,97354.95
2023-03-21T10:19:46.680Z,97348.59
2023-03-21T10:22:14.952Z,97343.27
2023-03-21T10:24:43.436Z,97341.30
2023-03-21T10:27:13.376Z,97338.02
2023-03-21T10:29:44.645Z,97335.81
2023-03-21T10:32:17.425Z,97337.71
2023-03-21T10:34:51.484Z,97334.34
2023-03-21T10:37:19.864Z,97334.48
2023-03-21T10:39:51.615Z,97334.28
2023-03-21T10:42:27.176Z,97334.65
2023-03-21T10:44:57.694Z,97331.91
2023-03-21T10:47:34.718Z,97333.65
2023-03-21T10:50:10.208Z,97340.10
2023-03-21T10:52:46.804Z,97336.06
2023-03-21T10:55:30.732Z,97330.85
2023-03-21T10:58:08.630Z,97327.71
2023-03-21T11:00:48.119Z,97328.11
2023-03-21T11:03:23.443Z,97324.98
2023-03-21T11:06:05.952Z,97327.19
2023-03-21T11:09:14.029Z,97327.09
2023-03-21T11:11:54.817Z,97329.85
2023-03-21T11:14:52.366Z,97327.90
2023-03-21T11:17:22.381Z,97325.36
2023-03-21T11:19:53.542Z,97327.41
2023-03-21T11:22:25.255Z,97325.42
2023-03-21T11:24:57.267Z,97323.70
2023-03-21T11:27:29.670Z,97321.66
2023-03-21T11:30:01.905Z,97318.92
2023-03-21T11:32:36.328Z,97313.23
2023-03-21T11:35:16.564Z,97309.83
2023-03-21T11:37:51.422Z,97300.77
2023-03-21T11:40:25.415Z,97290.91
2023-03-21T11:42:58.007Z,97283.41
2023-03-21T11:45:32.206Z,97280.20
2023-03-21T11:48:03.529Z,97278.80
2023-03-21T11:50:36.160Z,97277.77
2023-03-21T11:53:04.214Z,97273.37
2023-03-21T11:55:57.569Z,97272.81
2023-03-21T11:58:34.857Z,97269.45
2023-03-21T12:01:21.248Z,97263.41
2023-03-21T12:04:13.417Z,97254.36
2023-03-21T12:06:52.870Z,97248.27
2023-03-21T12:09:40.455Z,97243.31
2023-03-21T12:12:30.028Z,97244.42
2023-03-21T12:15:20.032Z,97239.33
2023-03-21T12:17:51.146Z,97235.05
2023-03-21T12:20:30.473Z,97237.30
2023-03-21T12:23:13.993Z,97235.39
2023-03-21T12:25:56.601Z,97233.75
2023-03-21T12:28:52.215Z,97232.88
2023-03-21T12:31:26.301Z,97230.92
2023-03-21T12:34:18.699Z,97235.34
2023-03-21T12:36:58.417Z,97235.21
2023-03-21T12:39:32.147Z,97242.04
2023-03-21T12:42:22.309Z,97251.00
2023-03-21T12:45:11.586Z,97261.36
2023-03-21T12:47:49.016Z,97275.44
2023-03-21T12:50:26.349Z,97279.00
2023-03-21T12:53:02.212Z,97291.17
2023-03-21T12:55:33.814Z,97310.58
2023-03-21T12:58:11.655Z,97329.25
2023-03-21T13:00:44.567Z,97346.88
2023-03-21T13:03:27.660Z,97352.77
2023-03-21T13:06:04.441Z,97349.45
2023-03-21T13:08:38.047Z,97345.05
2023-03-21T13:11:07.842Z,97336.45
2023-03-21T13:13:53.122Z,97330.32
2023-03-21T13:16:34.837Z,97328.61
2023-03-21T13:19:14.023Z,97321.45
2023-03-21T13:22:10.016Z,97297.89
2023-03-21T13:24:47.453Z,97287.42
2023-03-21T13:27:33.865Z,97283.19
2023-03-21T13:30:22.238Z,97276.45
2023-03-21T13:32:51.710Z,97276.89
2023-03-21T13:35:29.121Z,97279.09
2023-03-21T13:38:02.194Z,97278.44
2023-03-21T13:40:43.022Z,97276.13
2023-03-21T13:43:42.470Z,97277.66
2023-03-21T13:46:11.231Z,97272.32
2023-03-21T13:48:59.551Z,97261.25
2023-03-21T13:51:28.158Z,97259.58
2023-03-21T13:54:06.738Z,97256.98
2023-03-21T13:56:47.113Z,97256.27
2023-03-21T13:59:39.111Z,97259.64
2023-03-21T14:02:19.184Z,97263.45
2023-03-21T14:05:04.822Z,97270.41
2023-03-21T14:07:41.108Z,97271.77
2023-03-21T14:10:20.380Z,97264.11
2023-03-21T14:12:49.371Z,97257.95
2023-03-21T14:15:24.482Z,97257.39
2023-03-21T14:18:15.875Z,97254.60
2023-03-21T14:20:54.640Z,97244.47
2023-03-21T14:23:23.732Z,97239.27
2023-03-21T14:25:53.000Z,97233.47
2023-03-21T14:28:28.679Z,97232.63
2023-03-21T14:31:00.271Z,97229.20
2023-03-21T14:33:44.317Z,97225.94
2023-03-21T14:36:20.846Z,97223.55
2023-03-21T14:38:58.659Z,97218.79
2023-03-21T14:41:29.629Z,97214.02
2023-03-21T14:44:12.547Z,97209.61
2023-03-21T14:46:41.971Z,97209.77
2023-03-21T14:49:24.669Z,97210.36
2023-03-21T14:52:00.118Z,97210.65
2023-03-21T14:54:29.247Z,97214.71
2023-03-21T14:57:05.185Z,97222.48
2023-03-21T14:59:37.702Z,97226.27
2023-03-21T15:02:36.826Z,97231.56
2023-03-21T15:05:19.610Z,97230.54
2023-03-21T15:08:02.411Z,97229.24
2023-03-21T15:10:32.022Z,97225.27
2023-03-21T15:13:12.539Z,97226.61
2023-03-21T15:15:41.618Z,97226.77
2023-03-21T15:18:16.341Z,97225.90
2023-03-21T15:20:46.706Z,97225.55
2023-03-21T15:23:38.516Z,97225.60
2023-03-21T15:26:07.146Z,97226.14
2023-03-21T15:28:36.496Z,97227.34
2023-03-21T15:31:13.948Z,97232.73
2023-03-21T15:33:46.574Z,97237.32
2023-03-21T15:36:28.018Z,97243.44
2023-03-21T15:38:56.517Z,97245.33
2023-03-21T15:41:29.718Z,97248.04
2023-03-21T15:44:10.256Z,97253.55
2023-03-21T15:46:46.387Z,97253.02
2023-03-21T15:49:17.372Z,97254.33
2023-03-21T15:51:49.654Z,97253.27
2023-03-21T15:54:31.342Z,97254.06
2023-03-21T15:57:04.725Z,97250.16
2023-03-21T15:59:36.085Z,97242.72
2023-03-21T16:02:05.198Z,97236.13
2023-03-21T16:04:53.510Z,97236.98
2023-03-21T16:07:25.472Z,97235.73
2023-03-21T16:10:01.707Z,97233.36
2023-03-21T16:12:29.883Z,97230.83
2023-03-21T16:14:58.152Z,97232.52
2023-03-21T16:17:39.769Z,97235.11
2023-03-21T16:20:20.420Z,97235.34
2023-03-21T16:22:48.818Z,97229.48
2023-03-21T16:25:18.232Z,97225.40
2023-03-21T16:27:47.618Z,97224.27
2023-03-21T16:30:20.275Z,97226.63
2023-03-21T16:32:50.312Z,97227.77
2023-03-21T16:35:20.574Z,97232.37
2023-03-21T16:37:49.948Z,97236.06
2023-03-21T16:40:27.736Z,97238.34
2023-03-21T16:42:56.113Z,97241.30
2023-03-21T16:45:24.700Z,97242.77
2023-03-21T16:47:53.620Z,97245.34
2023-03-21T16:50:35.443Z,97246.83
2023-03-21T16:53:04.705Z,97246.32
2023-03-21T16:55:34.908Z,97250.02
2023-03-21T16:58:03.697Z,97253.93
2023-03-21T17:00:32.671Z,97252.48
2023-03-21T17:03:03.741Z,97250.58
2023-03-21T17:05:32.098Z,97247.34
2023-03-21T17:08:04.732Z,97250.90
2023-03-21T17:10:33.667Z,97250.64
2023-03-21T17:13:02.048Z,97251.22
2023-03-21T17:15:30.430Z,97257.11
2023-03-21T17:17:58.604Z,97264.41
2023-03-21T17:20:34.716Z,97269.77
2023-03-21T17:23:03.568Z,97272.35
2023-03-21T17:25:31.611Z,97280.00
2023-03-21T17:28:00.009Z,97280.00
2023-03-21T17:30:34.402Z,97281.42
2023-03-21T17:33:02.986Z,97283.37
2023-03-21T17:35:31.156Z,97286.14
2023-03-21T17:37:59.548Z,97288.77
2023-03-21T17:40:31.417Z,97289.77
2023-03-21T17:43:01.408Z,97295.43
2023-03-21T17:45:29.903Z,97297.48
2023-03-21T17:47:58.181Z,97306.70
2023-03-21T17:50:31.473Z,97316.11
2023-03-21T17:52:59.739Z,97320.34
2023-03-21T17:55:27.641Z,97326.56
2023-03-21T17:57:55.881Z,97329.08
2023-03-21T18:00:27.247Z,97331.58
2023-03-21T18:02:56.431Z,97332.13
2023-03-21T18:05:26.845Z,97332.66
2023-03-21T18:08:10.318Z,97336.55
2023-03-21T18:10:42.161Z,97337.73
2023-03-21T18:13:11.372Z,97337.98
2023-03-21T18:15:44.077Z,97341.61
2023-03-21T18:18:14.550Z,97344.90
2023-03-21T18:20:51.766Z,97347.61
2023-03-21T18:23:21.797Z,97347.08
2023-03-21T18:25:52.754Z,97347.99
2023-03-21T18:28:22.425Z,97348.11
2023-03-21T18:31:12.610Z,97347.48
2023-03-21T18:33:41.705Z,97345.61
2023-03-21T18:36:13.792Z,97342.33
2023-03-21T18:38:42.868Z,97340.77
2023-03-21T18:41:11.629Z,97344.58
2023-03-21T18:46:28.411Z,97356.71
2023-03-21T18:48:57.981Z,97358.39
2023-03-21T18:51:26.463Z,97358.61
2023-03-21T18:53:55.231Z,97357.08
2023-03-21T18:57:13.223Z,97351.34
2023-03-21T18:59:12.474Z,97352.59
2023-03-21T19:01:42.077Z,97352.84
2023-03-21T19:04:23.057Z,97353.47
2023-03-21T19:06:58.556Z,97356.02
2023-03-21T19:09:31.394Z,97359.26
2023-03-21T19:12:01.594Z,97357.52
2023-03-21T19:14:30.168Z,97354.15
2023-03-21T19:17:55.795Z,97354.17
2023-03-21T19:19:48.049Z,97353.91
2023-03-21T19:22:16.940Z,97350.80
2023-03-21T19:24:44.980Z,97350.96
2023-03-21T19:27:13.562Z,97349.51
2023-03-21T19:29:42.046Z,97350.86
2023-03-21T19:32:10.303Z,97349.79
2023-03-21T19:34:38.824Z,97355.15
2023-03-21T19:37:07.327Z,97358.10
2023-03-21T19:39:35.665Z,97356.77
2023-03-21T19:42:15.959Z,97358.76
2023-03-21T19:44:45.829Z,97357.44
2023-03-21T19:47:13.809Z,97354.71
2023-03-21T19:50:30.665Z,97353.33
2023-03-21T19:52:32.270Z,97351.48
2023-03-21T19:55:00.533Z,97347.88
2023-03-21T19:57:28.610Z,97350.60
2023-03-21T19:59:56.886Z,97354.42
2023-03-21T20:02:35.555Z,97353.94
2023-03-21T20:05:06.828Z,97353.39
2023-03-21T20:07:35.081Z,97353.86
2023-03-21T20:10:03.927Z,97353.56
2023-03-21T20:12:35.071Z,97347.92
2023-03-21T20:15:16.990Z,97347.98
2023-03-21T20:17:46.043Z,97351.41
2023-03-21T20:20:17.131Z,97349.79
2023-03-21T20:23:06.388Z,97355.48
2023-03-21T20:25:39.837Z,97350.27
2023-03-21T20:28:23.761Z,97350.55
2023-03-21T20:31:00.756Z,97347.95
2023-03-21T20:33:29.773Z,97352.98
2023-03-21T20:36:38.278Z,97351.97
2023-03-21T20:38:52.836Z,97353.78
2023-03-21T20:41:20.982Z,97352.05
2023-03-21T20:46:37.786Z,97349.25
2023-03-21T20:49:08.812Z,97351.64
2023-03-21T20:54:25.301Z,97354.12
2023-03-21T20:56:53.356Z,97353.80
2023-03-21T20:59:27.296Z,97355.20
2023-03-21T21:01:57.771Z,97358.55
2023-03-21T21:04:48.292Z,97357.38
2023-03-21T21:07:22.810Z,97355.86
2023-03-21T21:09:50.863Z,97355.10
2023-03-21T21:12:19.520Z,97352.98
2023-03-21T21:14:48.450Z,97353.80
2023-03-21T21:20:17.998Z,97353.44
2023-03-21T21:23:13.564Z,97350.98
2023-03-21T21:25:41.709Z,97350.30
2023-03-21T21:28:27.144Z,97352.37
2023-03-21T21:31:01.229Z,97357.54
2023-03-21T21:33:29.737Z,97359.04
2023-03-21T21:36:03.658Z,97356.91
2023-03-21T21:38:36.198Z,97357.96
2023-03-21T21:41:07.888Z,97356.12
2023-03-21T21:43:36.766Z,97352.55
2023-03-21T21:46:05.659Z,97356.48
2023-03-21T21:48:34.323Z,97355.48
2023-03-21T21:51:02.627Z,97358.49
2023-03-21T21:53:33.852Z,97359.19
2023-03-21T21:56:06.393Z,97361.61
2023-03-21T21:58:38.629Z,97365.00
2023-03-21T22:01:07.246Z,97370.27
2023-03-21T22:03:36.574Z,97371.71
2023-03-21T22:06:05.114Z,97372.98
2023-03-21T22:08:33.524Z,97370.77
2023-03-21T22:11:02.541Z,97370.33
2023-03-21T22:13:30.737Z,97374.03
2023-03-21T22:15:58.702Z,97375.15
2023-03-21T22:18:26.747Z,97375.67
2023-03-21T22:20:54.846Z,97376.78
2023-03-21T22:23:26.085Z,97373.92
2023-03-21T22:25:54.096Z,97373.34
2023-03-21T22:28:22.269Z,97372.94
2023-03-21T22:30:50.490Z,97378.04
2023-03-21T22:33:20.092Z,97381.92
2023-03-21T22:35:52.874Z,97380.79
2023-03-21T22:38:24.160Z,97378.40
2023-03-21T22:40:59.982Z,97379.23
2023-03-21T22:43:28.965Z,97384.29
2023-03-21T22:45:57.338Z,97384.09
2023-03-21T22:48:25.677Z,97385.41
2023-03-21T22:50:53.788Z,97389.65
2023-03-21T22:53:22.256Z,97386.89
2023-03-21T22:55:50.560Z,97387.74
2023-03-21T22:58:19.215Z,97387.64
2023-03-21T23:00:47.514Z,97387.21
2023-03-21T23:03:17.107Z,97384.98
2023-03-21T23:05:45.820Z,97385.38
2023-03-21T23:08:14.035Z,97388.11
2023-03-21T23:10:46.323Z,97381.48
2023-03-21T23:13:14.104Z,97387.61
2023-03-21T23:15:42.163Z,97386.91
2023-03-21T23:18:10.452Z,97386.05
2023-03-21T23:20:38.637Z,97380.11
2023-03-21T23:23:06.902Z,97380.72
2023-03-21T23:25:38.638Z,97386.86
2023-03-21T23:28:08.375Z,97389.48
2023-03-21T23:30:39.039Z,97392.39
2023-03-21T23:33:07.256Z,97386.66
2023-03-21T23:35:38.518Z,97387.14
2023-03-21T23:38:06.924Z,97386.27
2023-03-21T23:40:34.862Z,97387.16
2023-03-21T23:43:03.239Z,97386.79
2023-03-21T23:45:31.217Z,97389.03
2023-03-21T23:47:59.088Z,97392.86
2023-03-21T23:50:27.145Z,97391.47
2023-03-21T23:52:54.970Z,97390.27
2023-03-21T23:55:23.183Z,97390.29
2023-03-21T23:57:59.058Z,97390.97
